Time;durP1;ratioP1;P1;durP2;ratioP2;P2;SDS_P1;SDS_P2;PMS_P1;PMS_P2;Temp;Humidity;BMP_temperature;BMP_pressure;BME280_temperature;BME280_humidity;BME280_pressure;Samples;Min_cycle;Max_cycle;Signal;HPM_P1;HPM_P2
2022/10/23 00:00:38;;;;;;;3.92;3.50;;;14.70;99.90;;;;;;5050144;28;20021;-87
2022/10/23 00:03:04;;;;;;;5.13;3.78;;;14.80;99.90;;;;;;5066973;28;20474;-88
2022/10/23 00:05:30;;;;;;;6.13;3.65;;;14.70;99.90;;;;;;5049709;28;20031;-88
2022/10/23 00:07:58;;;;;;;15.60;3.63;;;14.70;99.90;;;;;;5066877;28;20108;-89
2022/10/23 00:10:26;;;;;;;3.83;3.38;;;14.70;99.90;;;;;;5066850;28;20030;-88
2022/10/23 00:12:53;;;;;;;6.70;4.28;;;14.70;99.90;;;;;;5066699;28;20040;-88
2022/10/23 00:15:21;;;;;;;8.07;3.78;;;14.70;99.90;;;;;;5066561;28;20119;-88
2022/10/23 00:17:47;;;;;;;7.20;3.47;;;14.70;99.90;;;;;;5066431;28;20029;-89
2022/10/23 00:20:16;;;;;;;8.13;4.05;;;14.70;99.90;;;;;;5048885;28;20024;-90
2022/10/23 00:22:42;;;;;;;6.35;4.45;;;14.60;99.90;;;;;;5066117;28;20029;-89
2022/10/23 00:25:09;;;;;;;4.90;3.40;;;14.70;99.90;;;;;;5066594;28;20040;-88
2022/10/23 00:27:36;;;;;;;6.93;3.70;;;14.60;99.90;;;;;;5049533;28;20057;-88
2022/10/23 00:30:03;;;;;;;7.05;3.85;;;14.60;99.90;;;;;;5066185;28;20028;-88
2022/10/23 00:32:29;;;;;;;6.55;4.05;;;14.60;99.90;;;;;;5066322;28;20029;-89
2022/10/23 00:34:55;;;;;;;2.92;2.50;;;14.60;99.90;;;;;;5048996;28;20055;-88
2022/10/23 00:37:21;;;;;;;15.52;3.42;;;14.60;99.90;;;;;;5032971;28;20029;-88
2022/10/23 00:39:47;;;;;;;6.50;3.30;;;14.60;99.90;;;;;;5066139;28;20044;-87
2022/10/23 00:42:16;;;;;;;8.38;4.13;;;14.60;99.90;;;;;;5049576;28;20021;-88
2022/10/23 00:44:42;;;;;;;10.65;2.95;;;14.60;99.90;;;;;;5067884;28;20465;-88
2022/10/23 00:47:08;;;;;;;7.20;2.88;;;14.60;99.90;;;;;;5066018;28;20037;-89
2022/10/23 00:49:35;;;;;;;6.22;3.08;;;14.50;99.90;;;;;;5048975;28;20025;-88
2022/10/23 00:52:04;;;;;;;7.10;2.95;;;14.60;99.90;;;;;;5049265;28;20033;-89
2022/10/23 00:54:36;;;;;;;3.60;3.30;;;14.50;99.90;;;;;;5049285;28;20488;-88
2022/10/23 00:57:05;;;;;;;4.03;3.25;;;14.50;99.90;;;;;;5049142;28;20367;-89
2022/10/23 00:59:32;;;;;;;6.10;3.38;;;14.50;99.90;;;;;;5065625;28;20047;-88
2022/10/23 01:01:59;;;;;;;3.45;3.17;;;14.50;99.90;;;;;;5065611;28;20021;-89
2022/10/23 01:04:26;;;;;;;6.13;3.97;;;14.50;99.90;;;;;;5049070;28;20041;-89
2022/10/23 01:07:21;;;;;;;9.55;4.25;;;14.50;99.90;;;;;;5048696;28;20054;-89
2022/10/23 01:10:23;;;;;;;3.67;2.63;;;14.50;99.90;;;;;;5048505;28;20037;-89
2022/10/23 01:12:59;;;;;;;5.05;3.85;;;14.50;99.90;;;;;;5065562;28;20029;-88
2022/10/23 01:15:32;;;;;;;5.50;3.05;;;14.50;99.90;;;;;;5065431;28;20052;-89
2022/10/23 01:18:04;;;;;;;6.88;3.80;;;14.50;99.90;;;;;;5065422;28;20390;-89
2022/10/23 01:20:52;;;;;;;8.35;3.63;;;14.40;99.90;;;;;;5064744;28;20040;-88
2022/10/23 01:23:38;;;;;;;3.33;3.03;;;14.40;99.90;;;;;;5065022;28;20040;-88
2022/10/23 01:26:31;;;;;;;5.70;3.15;;;14.40;99.90;;;;;;5065243;28;20051;-89
2022/10/23 01:29:24;;;;;;;3.83;3.40;;;14.40;99.90;;;;;;5064964;28;20128;-89
2022/10/23 01:32:10;;;;;;;6.47;3.28;;;14.40;99.90;;;;;;5048612;28;20036;-88
2022/10/23 01:34:47;;;;;;;9.48;4.13;;;14.40;99.90;;;;;;5064671;28;20474;-89
2022/10/23 01:37:20;;;;;;;6.13;3.28;;;14.40;99.90;;;;;;5048207;28;20025;-89
2022/10/23 01:39:51;;;;;;;4.32;3.13;;;14.40;99.90;;;;;;5048661;28;20021;-88
2022/10/23 01:42:27;;;;;;;5.07;3.22;;;14.40;99.90;;;;;;5064490;28;20470;-89
2022/10/23 01:45:04;;;;;;;3.53;3.15;;;14.40;99.90;;;;;;5065216;28;20029;-89
2022/10/23 01:47:40;;;;;;;3.00;2.70;;;14.30;99.90;;;;;;5065216;28;20029;-88
2022/10/23 01:50:12;;;;;;;5.78;2.42;;;14.30;99.90;;;;;;5065973;28;20036;-88
2022/10/23 01:52:41;;;;;;;8.35;3.90;;;14.40;99.90;;;;;;5065176;28;20036;-88
2022/10/23 01:55:11;;;;;;;3.00;2.80;;;14.30;99.90;;;;;;5048098;28;20041;-88
2022/10/23 01:57:39;;;;;;;2.97;2.58;;;14.30;99.90;;;;;;5048426;28;20351;-88
2022/10/23 02:00:10;;;;;;;5.53;2.88;;;14.30;99.90;;;;;;5048077;28;20088;-88
2022/10/23 02:02:51;;;;;;;4.90;4.32;;;14.30;99.90;;;;;;5066041;28;20029;-89
2022/10/23 02:05:22;;;;;;;3.17;2.88;;;14.30;99.90;;;;;;5047716;28;20028;-89
2022/10/23 02:07:48;;;;;;;3.22;2.95;;;14.30;99.90;;;;;;5064991;28;20028;-88
2022/10/23 02:10:15;;;;;;;4.15;3.75;;;14.30;99.90;;;;;;5064597;28;20021;-89
2022/10/23 02:12:59;;;;;;;5.55;3.55;;;14.30;99.90;;;;;;5048088;28;20059;-88
2022/10/23 02:15:30;;;;;;;6.18;2.75;;;14.30;99.90;;;;;;5064547;28;20501;-89
2022/10/23 02:18:25;;;;;;;8.32;2.72;;;14.30;99.90;;;;;;5048090;28;20025;-88
2022/10/23 02:21:04;;;;;;;7.22;4.18;;;14.30;99.90;;;;;;5047471;28;20036;-89
2022/10/23 02:23:53;;;;;;;3.50;3.20;;;14.20;99.90;;;;;;5064183;28;20029;-89
2022/10/23 02:26:25;;;;;;;3.72;2.97;;;14.30;99.90;;;;;;5064014;28;20041;-88
2022/10/23 02:29:35;;;;;;;4.00;3.22;;;14.20;99.90;;;;;;5064508;28;20108;-88
2022/10/23 02:32:01;;;;;;;2.75;2.10;;;14.20;99.90;;;;;;5063842;28;20119;-89
2022/10/23 02:34:27;;;;;;;8.05;2.63;;;14.20;99.90;;;;;;5047867;28;20121;-87
2022/10/23 02:36:53;;;;;;;3.85;3.00;;;14.20;99.90;;;;;;5047470;28;20548;-89
2022/10/23 02:39:23;;;;;;;3.17;2.88;;;14.30;99.90;;;;;;5047993;28;20033;-88
2022/10/23 02:41:58;;;;;;;10.50;3.33;;;14.20;99.90;;;;;;5047687;28;20378;-88
2022/10/23 02:44:51;;;;;;;3.67;2.88;;;14.20;99.90;;;;;;5068434;28;20223;-88
2022/10/23 02:47:39;;;;;;;2.47;2.28;;;14.20;99.90;;;;;;5068373;28;20097;-88
2022/10/23 02:50:36;;;;;;;6.15;2.45;;;14.20;99.90;;;;;;5068231;28;20040;-89
2022/10/23 02:53:24;;;;;;;4.57;2.90;;;14.20;99.90;;;;;;5067968;28;20063;-88
2022/10/23 02:56:04;;;;;;;4.25;3.35;;;14.20;99.90;;;;;;5067934;28;20116;-88
2022/10/23 02:58:42;;;;;;;2.45;2.25;;;14.20;99.90;;;;;;5051436;28;20060;-88
2022/10/23 03:01:14;;;;;;;5.18;3.65;;;14.20;99.90;;;;;;5051068;28;20452;-88
2022/10/23 03:03:51;;;;;;;4.25;3.33;;;14.20;99.90;;;;;;5068023;28;20029;-87
2022/10/23 03:06:18;;;;;;;5.60;3.22;;;14.20;99.90;;;;;;5067571;28;20021;-87
2022/10/23 03:08:51;;;;;;;3.08;2.78;;;14.20;99.90;;;;;;5048847;28;20033;-88
2022/10/23 03:11:18;;;;;;;3.60;2.28;;;14.10;99.90;;;;;;5051166;28;20029;-88
2022/10/23 03:13:44;;;;;;;8.73;3.70;;;14.20;99.90;;;;;;5051066;28;20021;-88
2022/10/23 03:16:10;;;;;;;4.85;2.70;;;14.10;99.90;;;;;;5034591;28;20094;-88
2022/10/23 03:18:35;;;;;;;8.38;2.88;;;14.10;99.90;;;;;;5034640;28;20037;-88
2022/10/23 03:21:02;;;;;;;3.60;3.30;;;;;;;;;;5034810;28;20033;-89
2022/10/23 03:23:28;;;;;;;5.18;3.08;;;14.10;99.90;;;;;;5068678;28;20108;-88
2022/10/23 03:25:55;;;;;;;5.95;2.63;;;14.10;99.90;;;;;;5050600;28;20083;-89
2022/10/23 03:28:34;;;;;;;3.63;2.53;;;14.10;99.90;;;;;;5037868;28;20112;-89
2022/10/23 03:31:06;;;;;;;4.32;3.08;;;14.10;99.90;;;;;;5051206;28;20040;-88
2022/10/23 03:33:32;;;;;;;3.47;2.85;;;14.10;99.90;;;;;;5050853;28;20078;-90
2022/10/23 03:36:06;;;;;;;5.15;2.67;;;14.10;99.90;;;;;;5020751;28;20040;-88
2022/10/23 03:38:33;;;;;;;4.53;3.25;;;14.10;99.90;;;;;;5067551;28;20025;-88
2022/10/23 03:40:59;;;;;;;4.05;3.25;;;14.10;99.90;;;;;;5050321;28;20089;-88
2022/10/23 03:43:27;;;;;;;8.40;3.47;;;14.10;99.90;;;;;;5066620;28;20025;-88
2022/10/23 03:45:54;;;;;;;4.65;3.20;;;14.10;99.90;;;;;;5036411;28;20059;-87
2022/10/23 03:48:23;;;;;;;5.50;3.78;;;14.10;99.90;;;;;;5034821;28;20393;-88
2022/10/23 03:50:50;;;;;;;4.60;2.67;;;14.10;99.90;;;;;;5050471;28;20123;-89
2022/10/23 03:53:16;;;;;;;3.35;2.63;;;14.10;99.90;;;;;;5033858;28;20397;-88
2022/10/23 03:55:43;;;;;;;3.45;2.22;;;14.10;99.90;;;;;;5049141;28;20088;-88
2022/10/23 03:58:09;;;;;;;4.40;3.53;;;14.10;99.90;;;;;;5033166;28;20057;-88
2022/10/23 04:00:35;;;;;;;3.65;2.92;;;14.00;99.90;;;;;;5066947;28;20017;-88
2022/10/23 04:03:01;;;;;;;8.43;3.35;;;14.10;99.90;;;;;;5050091;28;20017;-88
2022/10/23 04:05:27;;;;;;;6.03;2.20;;;14.10;99.90;;;;;;5049964;28;20029;-88
2022/10/23 04:07:56;;;;;;;5.88;4.15;;;14.10;99.90;;;;;;5050510;28;20048;-87
2022/10/23 04:10:22;;;;;;;4.53;2.63;;;14.10;99.90;;;;;;5049869;28;20105;-88
2022/10/23 04:12:49;;;;;;;5.88;3.15;;;14.00;99.90;;;;;;5049797;28;20025;-89
2022/10/23 04:15:15;;;;;;;3.33;2.60;;;14.00;99.90;;;;;;5049917;28;20048;-88
2022/10/23 04:17:44;;;;;;;4.50;3.03;;;14.10;99.90;;;;;;5045626;28;20025;-88
2022/10/23 04:20:10;;;;;;;6.63;2.88;;;14.10;99.90;;;;;;5046086;28;20100;-88
2022/10/23 04:22:36;;;;;;;4.13;2.55;;;14.00;99.90;;;;;;5050563;28;20055;-90
2022/10/23 04:25:02;;;;;;;3.88;2.25;;;14.10;99.90;;;;;;5036020;28;20123;-89
2022/10/23 04:27:29;;;;;;;3.03;2.70;;;14.00;99.90;;;;;;5053012;28;20049;-89
2022/10/23 04:29:56;;;;;;;6.43;3.15;;;14.00;99.90;;;;;;5037435;28;20028;-89
2022/10/23 04:32:22;;;;;;;5.75;2.88;;;14.10;99.90;;;;;;5040439;28;20029;-89
2022/10/23 04:34:50;;;;;;;4.95;2.92;;;14.00;99.90;;;;;;5048998;28;20111;-88
2022/10/23 04:37:16;;;;;;;4.03;3.05;;;;;;;;;;5032767;28;20029;-89
2022/10/23 04:39:44;;;;;;;2.63;2.33;;;;;;;;;;5065711;28;20025;-88
2022/10/23 04:42:12;;;;;;;3.85;2.58;;;14.00;99.90;;;;;;5034976;28;20148;-88
2022/10/23 04:44:39;;;;;;;4.22;1.90;;;14.00;99.90;;;;;;5064510;28;20030;-90
2022/10/23 04:47:05;;;;;;;5.63;3.63;;;14.00;99.90;;;;;;5058281;28;20033;-88
2022/10/23 04:49:33;;;;;;;4.18;2.55;;;14.00;99.90;;;;;;5041114;28;20023;-88
2022/10/23 04:52:23;;;;;;;8.55;2.58;;;14.00;99.90;;;;;;5053105;28;20044;-89
2022/10/23 04:55:18;;;;;;;2.70;2.50;;;14.00;99.90;;;;;;5045880;28;20099;-88
2022/10/23 04:57:52;;;;;;;3.15;2.70;;;;;;;;;;5032329;28;20021;-88
2022/10/23 05:00:22;;;;;;;2.88;2.60;;;14.00;99.90;;;;;;5065446;28;20025;-88
2022/10/23 05:02:52;;;;;;;3.75;2.35;;;14.00;99.90;;;;;;5065489;28;20462;-88
2022/10/23 05:05:21;;;;;;;4.00;3.28;;;14.00;99.90;;;;;;5045293;28;20104;-88
2022/10/23 05:07:59;;;;;;;6.90;2.70;;;14.00;99.90;;;;;;5050329;28;20076;-89
2022/10/23 05:10:37;;;;;;;8.85;4.13;;;14.00;99.90;;;;;;5035344;28;20028;-88
2022/10/23 05:13:14;;;;;;;3.53;3.22;;;14.00;99.90;;;;;;5050063;28;20555;-90
2022/10/23 05:15:40;;;;;;;4.75;3.47;;;14.00;99.90;;;;;;5081886;28;20028;-88
2022/10/23 05:18:16;;;;;;;3.50;2.88;;;14.00;99.90;;;;;;5064931;28;20039;-89
2022/10/23 05:20:44;;;;;;;2.75;2.33;;;14.00;99.90;;;;;;5065220;28;20112;-88
2022/10/23 05:23:13;;;;;;;2.67;2.45;;;13.90;99.90;;;;;;5052495;28;20028;-87
2022/10/23 05:25:42;;;;;;;3.72;2.83;;;13.90;99.90;;;;;;5051133;28;20041;-87
2022/10/23 05:28:14;;;;;;;4.07;2.95;;;14.00;99.90;;;;;;5065650;28;20519;-88
2022/10/23 05:30:41;;;;;;;8.20;3.25;;;13.90;99.90;;;;;;5081450;28;20044;-88
2022/10/23 05:33:08;;;;;;;4.18;2.83;;;13.90;99.90;;;;;;5043453;28;20032;-88
2022/10/23 05:35:39;;;;;;;3.17;2.60;;;14.00;99.90;;;;;;5056628;28;20091;-88
2022/10/23 05:38:07;;;;;;;3.80;2.35;;;14.00;99.90;;;;;;5064465;28;20032;-88
2022/10/23 05:40:33;;;;;;;2.80;2.60;;;13.90;99.90;;;;;;5050395;28;20097;-89
2022/10/23 05:43:04;;;;;;;3.50;2.60;;;14.00;99.90;;;;;;5058193;28;20732;-88
2022/10/23 05:45:41;;;;;;;3.35;3.00;;;13.90;99.90;;;;;;5050036;28;20043;-89
2022/10/23 05:48:42;;;;;;;3.47;2.08;;;13.90;99.90;;;;;;5045358;28;20092;-89
2022/10/23 05:51:25;;;;;;;2.85;2.63;;;13.90;99.90;;;;;;5049447;28;20037;-88
2022/10/23 05:53:59;;;;;;;4.90;2.92;;;13.90;99.90;;;;;;5049304;28;20035;-87
2022/10/23 05:56:45;;;;;;;3.53;1.92;;;14.00;99.90;;;;;;5030602;28;20033;-89
2022/10/23 05:59:30;;;;;;;3.45;2.55;;;13.90;99.90;;;;;;5051031;28;20052;-88
2022/10/23 06:02:16;;;;;;;2.67;2.15;;;13.90;99.90;;;;;;5038170;28;20017;-88
2022/10/23 06:04:53;;;;;;;3.65;3.20;;;13.90;99.90;;;;;;5073300;28;20124;-88
2022/10/23 06:07:37;;;;;;;2.85;2.65;;;13.90;99.90;;;;;;5082828;28;20489;-89
2022/10/23 06:10:06;;;;;;;4.70;2.92;;;13.90;99.90;;;;;;5084644;28;20035;-88
2022/10/23 06:12:35;;;;;;;4.63;3.63;;;13.90;99.90;;;;;;5051246;28;20039;-88
2022/10/23 06:15:02;;;;;;;3.55;3.25;;;13.90;99.90;;;;;;5044425;28;20045;-88
2022/10/23 06:17:48;;;;;;;3.47;3.00;;;13.90;99.90;;;;;;5062960;28;20044;-88
2022/10/23 06:20:14;;;;;;;10.73;4.10;;;13.90;99.90;;;;;;5070566;28;20021;-87
2022/10/23 06:22:41;;;;;;;3.22;2.92;;;13.90;99.90;;;;;;5047012;28;20036;-87
2022/10/23 06:25:21;;;;;;;2.67;2.47;;;13.90;99.90;;;;;;5068791;28;20068;-89
2022/10/23 06:27:49;;;;;;;3.83;2.75;;;13.90;99.90;;;;;;5068251;28;20055;-89
2022/10/23 06:30:16;;;;;;;5.40;3.53;;;13.90;99.90;;;;;;5068526;28;20054;-89
2022/10/23 06:32:45;;;;;;;4.07;2.83;;;13.90;99.90;;;;;;5048993;28;20068;-88
2022/10/23 06:35:11;;;;;;;4.25;3.60;;;13.90;99.90;;;;;;5032930;28;20026;-89
2022/10/23 06:37:37;;;;;;;3.17;2.88;;;13.90;99.90;;;;;;5077716;28;20027;-88
2022/10/23 06:40:08;;;;;;;3.78;2.92;;;13.90;99.90;;;;;;5086145;28;20103;-87
2022/10/23 06:43:07;;;;;;;3.70;3.40;;;13.90;99.90;;;;;;5056899;28;20033;-88
2022/10/23 06:45:53;;;;;;;3.40;2.50;;;13.90;99.90;;;;;;5054817;28;20033;-88
2022/10/23 06:48:44;;;;;;;3.45;3.05;;;13.90;99.90;;;;;;5071150;28;20021;-88
2022/10/23 06:51:18;;;;;;;5.25;3.22;;;13.90;99.90;;;;;;5068765;28;20055;-89
2022/10/23 06:53:44;;;;;;;3.92;3.50;;;13.90;99.90;;;;;;5057125;28;20024;-89
2022/10/23 06:56:34;;;;;;;6.05;2.55;;;13.90;99.90;;;;;;5086479;28;20037;-89
2022/10/23 06:59:00;;;;;;;2.78;2.55;;;13.90;99.90;;;;;;5071100;28;20033;-88
2022/10/23 07:01:26;;;;;;;4.47;3.22;;;13.90;99.90;;;;;;5068022;28;20461;-89
2022/10/23 07:03:52;;;;;;;3.50;2.95;;;13.90;99.90;;;;;;5045892;28;20035;-88
2022/10/23 07:06:23;;;;;;;2.78;2.47;;;13.90;99.90;;;;;;5059241;28;20129;-88
2022/10/23 07:08:49;;;;;;;3.17;2.72;;;13.90;99.90;;;;;;5087692;28;20377;-87
2022/10/23 07:11:39;;;;;;;3.87;2.57;;;13.90;99.90;;;;;;5079960;28;20052;-88
2022/10/23 07:14:05;;;;;;;5.10;3.35;;;13.90;99.90;;;;;;5087615;28;20032;-89
2022/10/23 07:16:31;;;;;;;3.40;3.10;;;13.90;99.90;;;;;;5071207;28;20043;-89
2022/10/23 07:18:59;;;;;;;27.55;4.10;;;13.90;99.90;;;;;;5070947;28;20032;-89
2022/10/23 07:21:33;;;;;;;7.18;3.42;;;13.90;99.90;;;;;;5086084;28;20041;-88
2022/10/23 07:24:26;;;;;;;12.63;3.10;;;14.00;99.90;;;;;;5085215;28;20036;-88
2022/10/23 07:26:54;;;;;;;9.90;3.75;;;13.90;99.90;;;;;;5054532;28;20029;-88
2022/10/23 07:29:22;;;;;;;5.18;3.55;;;14.00;99.90;;;;;;5087307;28;20029;-89
2022/10/23 07:31:48;;;;;;;5.15;4.35;;;13.90;99.90;;;;;;5070632;28;20036;-88
2022/10/23 07:34:35;;;;;;;6.53;3.47;;;13.90;99.90;;;;;;5051115;28;20052;-89
2022/10/23 07:37:15;;;;;;;21.70;4.30;;;13.90;99.90;;;;;;5038384;28;20040;-89
2022/10/23 07:39:41;;;;;;;10.65;3.88;;;13.90;99.90;;;;;;5067418;28;20029;-88
2022/10/23 07:42:08;;;;;;;11.38;4.68;;;14.00;99.90;;;;;;5034194;28;20029;-89
2022/10/23 07:44:34;;;;;;;7.85;3.45;;;13.90;99.90;;;;;;5067112;28;20063;-88
2022/10/23 07:47:00;;;;;;;8.77;4.40;;;13.90;99.90;;;;;;5050588;28;20095;-89
2022/10/23 07:49:27;;;;;;;4.75;2.40;;;14.00;99.90;;;;;;5034099;28;20017;-88
2022/10/23 07:51:53;;;;;;;6.60;3.65;;;14.00;99.90;;;;;;5050693;28;20033;-87
2022/10/23 07:54:19;;;;;;;9.40;3.80;;;14.00;99.90;;;;;;5067177;28;20494;-88
2022/10/23 07:57:00;;;;;;;10.85;3.45;;;14.00;99.90;;;;;;5052861;28;20036;-88
2022/10/23 07:59:40;;;;;;;5.00;3.67;;;14.00;99.90;;;;;;5052214;28;20017;-88
2022/10/23 08:02:14;;;;;;;6.97;2.85;;;14.00;99.90;;;;;;5066648;28;20172;-88
2022/10/23 08:04:41;;;;;;;4.40;3.22;;;14.00;99.90;;;;;;5064304;28;20035;-87
2022/10/23 08:07:18;;;;;;;15.50;3.72;;;14.00;99.90;;;;;;5086913;28;20024;-88
2022/10/23 08:09:45;;;;;;;7.28;3.33;;;14.00;99.90;;;;;;5070294;28;20056;-87
2022/10/23 08:12:11;;;;;;;7.20;3.45;;;14.00;99.90;;;;;;5070031;28;20029;-88
2022/10/23 08:14:37;;;;;;;3.17;2.90;;;14.10;99.90;;;;;;5053746;28;20036;-87
2022/10/23 08:17:03;;;;;;;5.75;2.88;;;14.00;99.90;;;;;;5070063;28;20029;-87
2022/10/23 08:19:48;;;;;;;9.98;4.57;;;14.00;99.90;;;;;;5069144;28;20040;-88
2022/10/23 08:22:15;;;;;;;5.20;3.00;;;14.10;99.90;;;;;;5066452;28;20040;-88
2022/10/23 08:24:43;;;;;;;3.75;3.22;;;14.10;99.90;;;;;;5066952;28;20057;-88
2022/10/23 08:27:09;;;;;;;6.63;3.00;;;14.10;99.90;;;;;;5068996;28;20798;-88
2022/10/23 08:29:41;;;;;;;7.57;3.88;;;14.10;99.90;;;;;;5070415;28;20029;-88
2022/10/23 08:32:07;;;;;;;6.50;3.38;;;14.10;99.90;;;;;;5036586;28;20028;-88
2022/10/23 08:34:46;;;;;;;4.10;2.47;;;14.20;99.90;;;;;;5071454;28;20029;-89
2022/10/23 08:37:12;;;;;;;4.28;3.05;;;14.20;99.90;;;;;;5069469;28;20029;-88
2022/10/23 08:39:38;;;;;;;5.60;3.30;;;14.20;99.90;;;;;;5069147;28;20590;-88
2022/10/23 08:42:21;;;;;;;5.07;2.47;;;14.20;99.90;;;;;;5084123;28;20008;-88
2022/10/23 08:45:00;;;;;;;3.80;3.35;;;14.20;99.90;;;;;;5058020;28;20063;-88
2022/10/23 08:47:39;;;;;;;4.90;2.95;;;14.20;99.90;;;;;;5049464;28;20029;-88
2022/10/23 08:50:36;;;;;;;4.53;2.20;;;14.20;99.90;;;;;;5050858;28;20092;-89
2022/10/23 08:53:14;;;;;;;3.78;1.98;;;14.20;99.90;;;;;;5066651;28;20029;-88
2022/10/23 08:55:45;;;;;;;3.65;2.85;;;14.20;99.90;;;;;;5082383;28;20086;-88
2022/10/23 08:58:15;;;;;;;6.38;2.35;;;14.20;99.90;;;;;;5049139;28;20031;-88
2022/10/23 09:00:43;;;;;;;6.72;3.80;;;14.20;99.90;;;;;;5069143;28;20077;-88
2022/10/23 09:03:11;;;;;;;6.50;2.72;;;14.30;99.90;;;;;;5085467;28;20039;-88
2022/10/23 09:05:58;;;;;;;3.55;2.30;;;14.20;99.90;;;;;;5068995;28;20040;-89
2022/10/23 09:08:39;;;;;;;4.72;2.72;;;14.30;99.90;;;;;;5068954;28;20488;-88
2022/10/23 09:11:19;;;;;;;4.75;3.00;;;14.30;99.90;;;;;;5069223;28;20040;-88
2022/10/23 09:13:54;;;;;;;;;;;14.30;99.90;;;;;;5062628;28;20025;-89
2022/10/23 09:16:38;;;;;;;3.10;2.80;;;14.30;99.90;;;;;;5065252;28;19923;-88
2022/10/23 09:19:18;;;;;;;2.40;2.28;;;14.40;99.90;;;;;;5065294;28;20040;-89
2022/10/23 09:21:48;;;;;;;8.93;2.35;;;14.30;99.90;;;;;;5082049;28;20029;-88
2022/10/23 09:24:20;;;;;;;3.50;1.75;;;14.40;99.90;;;;;;5065143;28;20025;-88
2022/10/23 09:26:48;;;;;;;4.63;2.15;;;14.40;99.90;;;;;;5065372;28;20025;-88
2022/10/23 09:29:21;;;;;;;4.72;2.92;;;14.40;99.90;;;;;;5060189;28;20086;-88
2022/10/23 09:31:51;;;;;;;3.67;2.15;;;14.40;99.90;;;;;;5085114;28;20059;-89
2022/10/23 09:34:21;;;;;;;2.35;2.10;;;14.40;99.90;;;;;;5085142;28;20032;-88
2022/10/23 09:37:02;;;;;;;4.10;2.60;;;14.50;99.90;;;;;;5085212;28;20028;-89
2022/10/23 09:39:31;;;;;;;3.13;2.47;;;14.40;99.90;;;;;;5085142;28;20033;-89
2022/10/23 09:41:58;;;;;;;4.57;2.78;;;14.40;99.90;;;;;;5085179;28;20037;-90
2022/10/23 09:44:31;;;;;;;3.15;2.85;;;14.40;99.90;;;;;;5052267;28;20028;-88
2022/10/23 09:47:06;;;;;;;4.63;2.30;;;14.40;99.90;;;;;;5065174;28;20100;-91
2022/10/23 09:49:34;;;;;;;2.30;2.05;;;14.40;99.90;;;;;;5065074;28;20029;-89
2022/10/23 09:52:01;;;;;;;4.65;2.45;;;14.50;99.90;;;;;;5048284;28;20120;-89
2022/10/23 09:54:35;;;;;;;5.53;2.70;;;14.50;99.90;;;;;;5081501;28;20033;-89
2022/10/23 09:57:18;;;;;;;1.83;1.65;;;14.50;99.90;;;;;;5065090;28;20099;-88
2022/10/23 09:59:53;;;;;;;6.93;1.92;;;14.50;99.90;;;;;;5064304;28;20035;-89
2022/10/23 10:02:26;;;;;;;4.57;2.05;;;14.50;99.90;;;;;;5064596;28;20036;-88
2022/10/23 10:05:37;;;;;;;2.47;2.00;;;14.50;99.90;;;;;;5059660;28;20036;-89
2022/10/23 10:08:19;;;;;;;4.53;3.15;;;14.50;99.90;;;;;;5013311;28;20029;-89
2022/10/23 10:11:12;;;;;;;6.18;2.67;;;14.50;99.90;;;;;;5044854;28;20044;-89
2022/10/23 10:13:49;;;;;;;7.72;2.80;;;14.60;99.90;;;;;;5041394;28;20064;-89
2022/10/23 10:16:20;;;;;;;6.13;2.45;;;14.60;99.90;;;;;;5044735;28;20063;-88
2022/10/23 10:19:01;;;;;;;3.42;2.08;;;14.60;99.90;;;;;;5044648;28;20025;-89
2022/10/23 10:21:27;;;;;;;;;;;14.60;99.90;;;;;;5054735;28;20044;-89
2022/10/23 10:24:01;;;;;;;4.25;2.67;;;14.60;99.90;;;;;;5077257;28;19909;-88
2022/10/23 10:27:00;;;;;;;2.45;2.25;;;14.60;99.90;;;;;;5068145;28;20032;-88
2022/10/23 10:30:03;;;;;;;4.75;2.15;;;14.70;99.90;;;;;;5068111;28;20131;-89
2022/10/23 10:32:49;;;;;;;4.18;2.53;;;14.70;99.90;;;;;;5085144;28;20051;-88
2022/10/23 10:35:37;;;;;;;4.85;1.98;;;14.70;99.90;;;;;;5083602;28;20052;-89
2022/10/23 10:38:16;;;;;;;2.08;1.88;;;14.70;99.90;;;;;;5064804;28;20066;-88
2022/10/23 10:41:10;;;;;;;2.92;1.95;;;14.70;99.90;;;;;;5084514;28;20021;-89
2022/10/23 10:43:53;;;;;;;1.65;1.55;;;14.70;99.90;;;;;;5057081;28;20032;-88
2022/10/23 10:46:47;;;;;;;7.22;3.58;;;14.70;99.90;;;;;;5067859;28;20032;-88
2022/10/23 10:49:29;;;;;;;4.78;2.13;;;14.70;99.90;;;;;;5084625;28;20039;-88
2022/10/23 10:52:30;;;;;;;2.28;2.08;;;14.90;99.90;;;;;;5082514;28;20032;-89
2022/10/23 10:55:11;;;;;;;12.05;2.30;;;14.80;99.90;;;;;;5067678;28;20119;-89
2022/10/23 10:58:14;;;;;;;6.20;2.72;;;14.80;99.90;;;;;;5084782;28;20039;-89
2022/10/23 11:00:40;;;;;;;5.13;2.72;;;14.90;99.90;;;;;;5046411;28;20036;-88
2022/10/23 11:03:21;;;;;;;3.30;2.25;;;14.90;99.90;;;;;;5067861;28;20020;-89
2022/10/23 11:05:49;;;;;;;3.55;2.40;;;14.90;99.90;;;;;;5088265;28;20033;-88
2022/10/23 11:08:21;;;;;;;3.17;2.28;;;14.90;99.90;;;;;;5054646;28;20040;-89
2022/10/23 11:10:52;;;;;;;2.38;2.00;;;14.90;99.90;;;;;;5064582;28;20033;-88
2022/10/23 11:13:39;;;;;;;8.30;2.67;;;15.00;99.90;;;;;;5047983;28;20025;-88
2022/10/23 11:16:17;;;;;;;4.15;2.00;;;15.00;99.90;;;;;;5064245;28;20037;-88
2022/10/23 11:18:48;;;;;;;2.58;2.17;;;15.10;99.90;;;;;;5064689;28;20037;-88
2022/10/23 11:21:21;;;;;;;3.55;2.70;;;15.10;99.90;;;;;;5062577;28;20088;-88
2022/10/23 11:24:14;;;;;;;3.42;2.83;;;15.10;99.90;;;;;;5089219;28;20025;-88
2022/10/23 11:27:09;;;;;;;3.47;1.80;;;15.20;99.90;;;;;;5087759;28;20060;-89
2022/10/23 11:30:23;;;;;;;7.97;3.15;;;15.20;99.90;;;;;;5087838;28;20055;-89
2022/10/23 11:33:01;;;;;;;4.68;2.55;;;15.30;99.90;;;;;;5011169;28;20032;-88
2022/10/23 11:35:52;;;;;;;4.50;2.67;;;15.30;99.90;;;;;;5070610;28;20087;-88
2022/10/23 11:38:28;;;;;;;9.90;3.50;;;15.30;99.90;;;;;;5079982;28;20025;-89
2022/10/23 11:40:58;;;;;;;3.33;2.33;;;15.40;99.90;;;;;;5067387;28;20025;-88
2022/10/23 11:43:32;;;;;;;6.75;2.83;;;15.40;99.90;;;;;;5067509;28;20025;-88
2022/10/23 11:46:10;;;;;;;3.00;2.80;;;15.40;99.90;;;;;;5067381;28;20119;-88
2022/10/23 11:48:42;;;;;;;2.85;2.22;;;15.40;99.90;;;;;;5067144;28;20033;-88
2022/10/23 11:51:33;;;;;;;4.82;2.83;;;15.40;99.90;;;;;;5076375;28;20025;-89
2022/10/23 11:54:12;;;;;;;3.30;1.83;;;15.40;99.90;;;;;;5086822;28;20120;-89
2022/10/23 11:56:57;;;;;;;6.20;2.20;;;15.40;99.90;;;;;;5087163;28;20032;-89
2022/10/23 11:59:31;;;;;;;3.97;2.28;;;15.50;99.90;;;;;;5086993;28;20033;-88
2022/10/23 12:02:03;;;;;;;7.47;3.38;;;15.50;99.90;;;;;;5086889;28;20032;-89
2022/10/23 12:04:44;;;;;;;3.35;2.38;;;15.60;99.90;;;;;;5087049;28;20095;-89
2022/10/23 12:07:24;;;;;;;2.72;2.17;;;15.60;99.90;;;;;;5083814;28;20024;-88
2022/10/23 12:10:01;;;;;;;3.38;2.78;;;15.60;99.90;;;;;;5066904;28;20025;-89
2022/10/23 12:12:31;;;;;;;3.28;2.97;;;15.60;99.90;;;;;;5066810;28;20025;-88
2022/10/23 12:15:10;;;;;;;4.57;3.03;;;15.70;99.90;;;;;;5082338;28;20021;-89
2022/10/23 12:17:41;;;;;;;4.68;2.05;;;15.70;99.90;;;;;;5083764;28;20501;-89
2022/10/23 12:20:07;;;;;;;18.25;2.80;;;15.70;99.90;;;;;;5067420;28;20094;-88
2022/10/23 12:22:54;;;;;;;2.63;2.45;;;15.70;99.90;;;;;;5086762;28;20029;-88
2022/10/23 12:25:42;;;;;;;2.65;2.45;;;15.70;99.90;;;;;;5074541;28;20048;-89
2022/10/23 12:28:25;;;;;;;3.80;2.30;;;15.80;99.90;;;;;;5086451;28;20059;-89
2022/10/23 12:31:18;;;;;;;2.47;2.28;;;15.80;99.90;;;;;;5087034;28;20118;-89
2022/10/23 12:34:12;;;;;;;3.60;2.13;;;15.80;99.90;;;;;;5086643;28;20048;-88
2022/10/23 12:36:53;;;;;;;3.47;2.50;;;15.80;99.90;;;;;;5073191;28;20094;-89
2022/10/23 12:39:39;;;;;;;6.20;2.75;;;15.90;99.90;;;;;;5077519;28;20055;-88
2022/10/23 12:42:24;;;;;;;4.63;2.15;;;15.90;99.90;;;;;;5053951;28;20083;-89
2022/10/23 12:45:01;;;;;;;4.15;2.30;;;15.90;99.90;;;;;;5049640;28;20055;-88
2022/10/23 12:47:28;;;;;;;4.53;2.38;;;16.00;99.90;;;;;;5083131;28;20028;-89
2022/10/23 12:49:55;;;;;;;1.50;1.40;;;15.90;99.90;;;;;;5057332;28;20035;-89
2022/10/23 12:52:24;;;;;;;4.03;2.10;;;16.00;99.90;;;;;;5067009;28;20055;-89
2022/10/23 12:54:50;;;;;;;3.85;2.92;;;16.00;99.90;;;;;;5072290;28;20444;-89
2022/10/23 12:57:21;;;;;;;2.95;2.53;;;16.00;99.90;;;;;;5074962;28;20020;-88
2022/10/23 12:59:47;;;;;;;2.88;2.40;;;16.00;99.90;;;;;;5065668;28;20036;-89
2022/10/23 13:02:32;;;;;;;4.70;2.13;;;16.00;99.90;;;;;;5050593;28;20017;-88
2022/10/23 13:05:02;;;;;;;2.03;1.83;;;16.00;99.90;;;;;;5048507;28;20028;-88
2022/10/23 13:07:35;;;;;;;4.85;2.65;;;16.10;99.90;;;;;;5048911;28;20032;-90
2022/10/23 13:10:04;;;;;;;3.95;2.70;;;16.10;99.90;;;;;;5060445;28;20031;-89
2022/10/23 13:12:37;;;;;;;3.75;1.67;;;16.10;99.90;;;;;;5069652;28;20474;-89
2022/10/23 13:15:06;;;;;;;2.50;2.03;;;16.10;99.90;;;;;;5068843;28;20035;-89
2022/10/23 13:17:39;;;;;;;8.35;2.80;;;16.10;99.90;;;;;;5068808;28;20040;-89
2022/10/23 13:20:27;;;;;;;3.95;2.95;;;16.10;99.90;;;;;;5068620;28;20032;-89
2022/10/23 13:22:59;;;;;;;4.72;2.05;;;16.20;99.90;;;;;;5045780;28;20035;-88
2022/10/23 13:25:31;;;;;;;5.72;2.92;;;16.20;99.90;;;;;;5045381;28;20044;-89